sensor_id;sensor_type;location;lat;lon;timestamp;P1;durP1;ratioP1;P2;durP2;ratioP2
39300;SDS011;25019;42.626;23.380;2023-10-31T00:00:19;6.50;;;3.07;;
39300;SDS011;25019;42.626;23.380;2023-10-31T00:02:45;4.37;;;3.00;;
39300;SDS011;25019;42.626;23.380;2023-10-31T00:05:10;6.73;;;3.00;;
39300;SDS011;25019;42.626;23.380;2023-10-31T00:07:36;5.97;;;2.87;;
39300;SDS011;25019;42.626;23.380;2023-10-31T00:10:01;3.43;;;2.60;;
39300;SDS011;25019;42.626;23.380;2023-10-31T00:12:27;4.60;;;2.57;;
39300;SDS011;25019;42.626;23.380;2023-10-31T00:14:53;4.33;;;2.40;;
39300;SDS011;25019;42.626;23.380;2023-10-31T00:17:18;3.27;;;2.57;;
39300;SDS011;25019;42.626;23.380;2023-10-31T00:19:44;5.03;;;2.90;;
39300;SDS011;25019;42.626;23.380;2023-10-31T00:22:09;4.83;;;2.90;;
39300;SDS011;25019;42.626;23.380;2023-10-31T00:24:35;5.87;;;2.83;;
39300;SDS011;25019;42.626;23.380;2023-10-31T00:27:00;4.43;;;2.80;;
39300;SDS011;25019;42.626;23.380;2023-10-31T00:29:26;3.70;;;2.53;;
39300;SDS011;25019;42.626;23.380;2023-10-31T00:31:52;2.67;;;2.00;;
39300;SDS011;25019;42.626;23.380;2023-10-31T00:34:17;5.37;;;2.17;;
39300;SDS011;25019;42.626;23.380;2023-10-31T00:36:43;4.70;;;2.30;;
39300;SDS011;25019;42.626;23.380;2023-10-31T00:39:08;4.23;;;2.10;;
39300;SDS011;25019;42.626;23.380;2023-10-31T00:41:34;5.37;;;2.23;;
39300;SDS011;25019;42.626;23.380;2023-10-31T00:44:00;5.20;;;2.50;;
39300;SDS011;25019;42.626;23.380;2023-10-31T00:46:26;4.10;;;2.90;;
39300;SDS011;25019;42.626;23.380;2023-10-31T00:48:51;3.47;;;2.23;;
39300;SDS011;25019;42.626;23.380;2023-10-31T00:51:17;3.17;;;2.67;;
39300;SDS011;25019;42.626;23.380;2023-10-31T00:53:42;3.60;;;2.40;;
39300;SDS011;25019;42.626;23.380;2023-10-31T00:56:08;4.40;;;2.67;;
39300;SDS011;25019;42.626;23.380;2023-10-31T00:58:33;3.87;;;2.43;;
39300;SDS011;25019;42.626;23.380;2023-10-31T01:00:59;4.80;;;2.53;;
39300;SDS011;25019;42.626;23.380;2023-10-31T01:03:25;3.70;;;3.03;;
39300;SDS011;25019;42.626;23.380;2023-10-31T01:05:50;4.03;;;2.30;;
39300;SDS011;25019;42.626;23.380;2023-10-31T01:08:16;3.87;;;2.57;;
39300;SDS011;25019;42.626;23.380;2023-10-31T01:10:41;4.43;;;2.17;;
39300;SDS011;25019;42.626;23.380;2023-10-31T01:13:07;3.50;;;2.27;;
39300;SDS011;25019;42.626;23.380;2023-10-31T01:15:33;4.87;;;2.60;;
39300;SDS011;25019;42.626;23.380;2023-10-31T01:17:58;3.63;;;2.53;;
39300;SDS011;25019;42.626;23.380;2023-10-31T01:20:24;4.50;;;2.67;;
39300;SDS011;25019;42.626;23.380;2023-10-31T01:22:49;9.83;;;3.13;;
39300;SDS011;25019;42.626;23.380;2023-10-31T01:25:15;8.83;;;3.10;;
39300;SDS011;25019;42.626;23.380;2023-10-31T01:27:40;5.60;;;2.70;;
39300;SDS011;25019;42.626;23.380;2023-10-31T01:30:07;4.97;;;2.80;;
39300;SDS011;25019;42.626;23.380;2023-10-31T01:32:33;6.27;;;3.23;;
39300;SDS011;25019;42.626;23.380;2023-10-31T01:34:59;5.10;;;2.97;;
39300;SDS011;25019;42.626;23.380;2023-10-31T01:37:24;4.43;;;3.10;;
39300;SDS011;25019;42.626;23.380;2023-10-31T01:39:50;5.20;;;2.83;;
39300;SDS011;25019;42.626;23.380;2023-10-31T01:42:16;3.87;;;3.03;;
39300;SDS011;25019;42.626;23.380;2023-10-31T01:44:42;5.47;;;2.87;;
39300;SDS011;25019;42.626;23.380;2023-10-31T01:47:07;3.93;;;3.03;;
39300;SDS011;25019;42.626;23.380;2023-10-31T01:49:34;6.57;;;2.90;;
39300;SDS011;25019;42.626;23.380;2023-10-31T01:52:01;4.40;;;2.87;;
39300;SDS011;25019;42.626;23.380;2023-10-31T01:54:29;3.50;;;2.80;;
39300;SDS011;25019;42.626;23.380;2023-10-31T01:56:55;6.13;;;3.27;;
39300;SDS011;25019;42.626;23.380;2023-10-31T01:59:24;4.83;;;2.50;;
39300;SDS011;25019;42.626;23.380;2023-10-31T02:01:50;6.07;;;2.63;;
39300;SDS011;25019;42.626;23.380;2023-10-31T03:12:11;4.70;;;2.90;;
39300;SDS011;25019;42.626;23.380;2023-10-31T03:14:37;4.93;;;3.20;;
39300;SDS011;25019;42.626;23.380;2023-10-31T03:17:02;4.23;;;3.07;;
39300;SDS011;25019;42.626;23.380;2023-10-31T03:19:28;4.73;;;2.63;;
39300;SDS011;25019;42.626;23.380;2023-10-31T03:21:54;5.77;;;3.30;;
39300;SDS011;25019;42.626;23.380;2023-10-31T03:24:19;5.13;;;2.90;;
39300;SDS011;25019;42.626;23.380;2023-10-31T03:26:45;6.87;;;3.30;;
39300;SDS011;25019;42.626;23.380;2023-10-31T03:29:10;4.40;;;2.83;;
39300;SDS011;25019;42.626;23.380;2023-10-31T03:31:38;4.97;;;3.43;;
39300;SDS011;25019;42.626;23.380;2023-10-31T03:34:03;4.57;;;3.33;;
39300;SDS011;25019;42.626;23.380;2023-10-31T03:36:29;3.53;;;2.73;;
39300;SDS011;25019;42.626;23.380;2023-10-31T03:38:55;4.00;;;3.50;;
39300;SDS011;25019;42.626;23.380;2023-10-31T03:41:21;5.57;;;3.30;;
39300;SDS011;25019;42.626;23.380;2023-10-31T03:43:49;5.70;;;3.23;;
39300;SDS011;25019;42.626;23.380;2023-10-31T03:46:15;5.87;;;3.60;;
39300;SDS011;25019;42.626;23.380;2023-10-31T03:48:41;5.07;;;3.17;;
39300;SDS011;25019;42.626;23.380;2023-10-31T03:51:07;3.80;;;3.43;;
39300;SDS011;25019;42.626;23.380;2023-10-31T03:53:32;7.10;;;3.20;;
39300;SDS011;25019;42.626;23.380;2023-10-31T03:56:01;6.10;;;3.07;;
39300;SDS011;25019;42.626;23.380;2023-10-31T03:58:27;6.93;;;3.23;;
39300;SDS011;25019;42.626;23.380;2023-10-31T04:00:52;6.43;;;3.30;;
39300;SDS011;25019;42.626;23.380;2023-10-31T04:03:18;5.57;;;2.80;;
39300;SDS011;25019;42.626;23.380;2023-10-31T04:05:43;5.20;;;3.33;;
39300;SDS011;25019;42.626;23.380;2023-10-31T04:08:09;4.87;;;3.67;;
39300;SDS011;25019;42.626;23.380;2023-10-31T04:10:35;4.93;;;3.40;;
39300;SDS011;25019;42.626;23.380;2023-10-31T04:13:01;7.90;;;3.93;;
39300;SDS011;25019;42.626;23.380;2023-10-31T04:15:26;4.33;;;3.43;;
39300;SDS011;25019;42.626;23.380;2023-10-31T04:17:52;3.93;;;2.97;;
39300;SDS011;25019;42.626;23.380;2023-10-31T04:20:17;5.87;;;3.50;;
39300;SDS011;25019;42.626;23.380;2023-10-31T04:22:43;5.47;;;2.90;;
39300;SDS011;25019;42.626;23.380;2023-10-31T04:25:08;4.77;;;3.17;;
39300;SDS011;25019;42.626;23.380;2023-10-31T04:27:34;6.13;;;3.53;;
39300;SDS011;25019;42.626;23.380;2023-10-31T04:29:59;4.50;;;3.17;;
39300;SDS011;25019;42.626;23.380;2023-10-31T04:32:25;5.37;;;3.63;;
39300;SDS011;25019;42.626;23.380;2023-10-31T04:34:50;4.00;;;3.23;;
39300;SDS011;25019;42.626;23.380;2023-10-31T04:37:16;4.70;;;3.17;;
39300;SDS011;25019;42.626;23.380;2023-10-31T04:39:41;5.10;;;3.83;;
39300;SDS011;25019;42.626;23.380;2023-10-31T04:42:07;6.03;;;3.30;;
39300;SDS011;25019;42.626;23.380;2023-10-31T04:44:33;6.60;;;3.30;;
39300;SDS011;25019;42.626;23.380;2023-10-31T04:46:58;4.47;;;3.40;;
39300;SDS011;25019;42.626;23.380;2023-10-31T04:49:24;5.15;;;3.05;;
39300;SDS011;25019;42.626;23.380;2023-10-31T04:51:50;8.23;;;3.47;;
39300;SDS011;25019;42.626;23.380;2023-10-31T04:54:15;5.00;;;3.17;;
39300;SDS011;25019;42.626;23.380;2023-10-31T04:56:41;5.43;;;2.90;;
39300;SDS011;25019;42.626;23.380;2023-10-31T04:59:06;5.47;;;3.43;;
39300;SDS011;25019;42.626;23.380;2023-10-31T05:01:32;6.43;;;3.60;;
39300;SDS011;25019;42.626;23.380;2023-10-31T05:03:57;8.13;;;2.80;;
39300;SDS011;25019;42.626;23.380;2023-10-31T05:06:23;4.63;;;3.00;;
39300;SDS011;25019;42.626;23.380;2023-10-31T05:08:48;8.07;;;3.23;;
39300;SDS011;25019;42.626;23.380;2023-10-31T05:11:17;8.97;;;4.10;;
39300;SDS011;25019;42.626;23.380;2023-10-31T05:13:44;6.37;;;3.13;;
39300;SDS011;25019;42.626;23.380;2023-10-31T05:16:10;7.47;;;3.30;;
39300;SDS011;25019;42.626;23.380;2023-10-31T05:18:37;7.07;;;3.53;;
39300;SDS011;25019;42.626;23.380;2023-10-31T05:21:03;5.80;;;3.27;;
39300;SDS011;25019;42.626;23.380;2023-10-31T05:23:30;5.27;;;3.37;;
39300;SDS011;25019;42.626;23.380;2023-10-31T05:25:55;7.47;;;3.30;;
39300;SDS011;25019;42.626;23.380;2023-10-31T05:28:21;4.37;;;3.00;;
39300;SDS011;25019;42.626;23.380;2023-10-31T05:30:46;16.27;;;7.90;;
39300;SDS011;25019;42.626;23.380;2023-10-31T05:33:14;13.47;;;7.30;;
39300;SDS011;25019;42.626;23.380;2023-10-31T05:35:40;14.77;;;4.80;;
39300;SDS011;25019;42.626;23.380;2023-10-31T05:38:06;7.40;;;4.67;;
39300;SDS011;25019;42.626;23.380;2023-10-31T05:40:31;6.47;;;3.70;;
39300;SDS011;25019;42.626;23.380;2023-10-31T05:43:00;6.53;;;4.60;;
39300;SDS011;25019;42.626;23.380;2023-10-31T05:45:26;7.37;;;3.77;;
39300;SDS011;25019;42.626;23.380;2023-10-31T05:47:52;7.37;;;3.70;;
39300;SDS011;25019;42.626;23.380;2023-10-31T05:50:17;6.23;;;3.90;;
39300;SDS011;25019;42.626;23.380;2023-10-31T05:52:43;8.47;;;3.60;;
39300;SDS011;25019;42.626;23.380;2023-10-31T05:55:08;8.40;;;3.60;;
39300;SDS011;25019;42.626;23.380;2023-10-31T05:57:34;6.73;;;3.47;;
39300;SDS011;25019;42.626;23.380;2023-10-31T05:59:59;5.13;;;3.10;;
39300;SDS011;25019;42.626;23.380;2023-10-31T06:02:25;3.83;;;3.10;;
39300;SDS011;25019;42.626;23.380;2023-10-31T06:04:50;7.67;;;3.23;;
39300;SDS011;25019;42.626;23.380;2023-10-31T06:07:16;4.83;;;2.70;;
39300;SDS011;25019;42.626;23.380;2023-10-31T06:09:41;5.07;;;3.10;;
39300;SDS011;25019;42.626;23.380;2023-10-31T06:12:07;5.93;;;2.73;;
39300;SDS011;25019;42.626;23.380;2023-10-31T06:14:32;9.53;;;2.57;;
39300;SDS011;25019;42.626;23.380;2023-10-31T06:16:58;3.80;;;2.83;;
39300;SDS011;25019;42.626;23.380;2023-10-31T06:19:26;7.20;;;3.00;;
39300;SDS011;25019;42.626;23.380;2023-10-31T06:21:51;21.37;;;10.87;;
39300;SDS011;25019;42.626;23.380;2023-10-31T06:24:17;5.67;;;3.07;;
39300;SDS011;25019;42.626;23.380;2023-10-31T06:26:43;6.13;;;3.47;;
39300;SDS011;25019;42.626;23.380;2023-10-31T06:29:08;7.53;;;3.47;;
39300;SDS011;25019;42.626;23.380;2023-10-31T06:31:34;9.47;;;3.73;;
39300;SDS011;25019;42.626;23.380;2023-10-31T06:33:59;6.47;;;3.93;;
39300;SDS011;25019;42.626;23.380;2023-10-31T06:36:25;8.83;;;4.93;;
39300;SDS011;25019;42.626;23.380;2023-10-31T06:38:50;10.23;;;5.17;;
39300;SDS011;25019;42.626;23.380;2023-10-31T06:41:16;6.83;;;4.30;;
39300;SDS011;25019;42.626;23.380;2023-10-31T06:43:41;7.00;;;5.30;;
39300;SDS011;25019;42.626;23.380;2023-10-31T06:46:07;12.43;;;6.30;;
39300;SDS011;25019;42.626;23.380;2023-10-31T06:48:33;12.10;;;8.47;;
39300;SDS011;25019;42.626;23.380;2023-10-31T06:50:59;12.83;;;7.67;;
39300;SDS011;25019;42.626;23.380;2023-10-31T06:53:24;11.97;;;8.23;;
39300;SDS011;25019;42.626;23.380;2023-10-31T06:55:50;10.60;;;8.00;;
39300;SDS011;25019;42.626;23.380;2023-10-31T06:58:15;12.77;;;7.90;;
39300;SDS011;25019;42.626;23.380;2023-10-31T07:00:41;15.23;;;9.50;;
39300;SDS011;25019;42.626;23.380;2023-10-31T07:03:06;13.03;;;7.07;;
39300;SDS011;25019;42.626;23.380;2023-10-31T07:05:37;15.50;;;7.97;;
39300;SDS011;25019;42.626;23.380;2023-10-31T07:08:03;15.33;;;8.57;;
39300;SDS011;25019;42.626;23.380;2023-10-31T07:10:29;12.37;;;7.13;;
39300;SDS011;25019;42.626;23.380;2023-10-31T07:12:55;11.93;;;6.60;;
39300;SDS011;25019;42.626;23.380;2023-10-31T07:15:21;10.93;;;6.20;;
39300;SDS011;25019;42.626;23.380;2023-10-31T07:17:46;11.73;;;5.50;;
39300;SDS011;25019;42.626;23.380;2023-10-31T07:20:12;14.10;;;5.80;;
39300;SDS011;25019;42.626;23.380;2023-10-31T07:22:38;11.57;;;4.23;;
39300;SDS011;25019;42.626;23.380;2023-10-31T07:25:05;6.17;;;3.83;;
39300;SDS011;25019;42.626;23.380;2023-10-31T07:27:31;6.60;;;3.70;;
39300;SDS011;25019;42.626;23.380;2023-10-31T07:29:57;7.60;;;3.83;;
39300;SDS011;25019;42.626;23.380;2023-10-31T07:32:22;10.13;;;3.90;;
39300;SDS011;25019;42.626;23.380;2023-10-31T07:34:48;8.70;;;4.10;;
39300;SDS011;25019;42.626;23.380;2023-10-31T07:37:13;6.40;;;3.20;;
39300;SDS011;25019;42.626;23.380;2023-10-31T07:39:39;6.40;;;3.43;;
39300;SDS011;25019;42.626;23.380;2023-10-31T07:42:05;6.50;;;3.53;;
39300;SDS011;25019;42.626;23.380;2023-10-31T07:44:30;5.83;;;3.30;;
39300;SDS011;25019;42.626;23.380;2023-10-31T07:46:56;2.63;;;2.43;;
39300;SDS011;25019;42.626;23.380;2023-10-31T07:49:21;4.07;;;2.67;;
39300;SDS011;25019;42.626;23.380;2023-10-31T07:51:47;3.73;;;2.80;;
39300;SDS011;25019;42.626;23.380;2023-10-31T07:54:13;5.63;;;3.10;;
39300;SDS011;25019;42.626;23.380;2023-10-31T07:56:41;5.07;;;3.00;;
39300;SDS011;25019;42.626;23.380;2023-10-31T07:59:07;5.07;;;3.67;;
39300;SDS011;25019;42.626;23.380;2023-10-31T08:01:33;5.60;;;3.00;;
39300;SDS011;25019;42.626;23.380;2023-10-31T08:04:00;4.73;;;2.90;;
39300;SDS011;25019;42.626;23.380;2023-10-31T08:06:25;7.13;;;3.00;;
39300;SDS011;25019;42.626;23.380;2023-10-31T08:08:51;6.17;;;2.80;;
39300;SDS011;25019;42.626;23.380;2023-10-31T08:11:16;5.27;;;2.73;;
39300;SDS011;25019;42.626;23.380;2023-10-31T08:13:42;5.67;;;2.60;;
39300;SDS011;25019;42.626;23.380;2023-10-31T08:16:08;6.20;;;3.20;;
39300;SDS011;25019;42.626;23.380;2023-10-31T08:18:34;5.13;;;3.30;;
39300;SDS011;25019;42.626;23.380;2023-10-31T08:21:00;6.30;;;3.00;;
39300;SDS011;25019;42.626;23.380;2023-10-31T08:23:26;7.63;;;3.97;;
39300;SDS011;25019;42.626;23.380;2023-10-31T08:25:53;6.87;;;3.53;;
39300;SDS011;25019;42.626;23.380;2023-10-31T08:28:18;7.37;;;3.57;;
39300;SDS011;25019;42.626;23.380;2023-10-31T08:30:44;4.93;;;3.57;;
39300;SDS011;25019;42.626;23.380;2023-10-31T08:33:11;4.83;;;4.10;;
39300;SDS011;25019;42.626;23.380;2023-10-31T08:35:36;6.77;;;3.73;;
39300;SDS011;25019;42.626;23.380;2023-10-31T08:38:02;6.73;;;3.70;;
39300;SDS011;25019;42.626;23.380;2023-10-31T08:40:28;6.10;;;3.60;;
39300;SDS011;25019;42.626;23.380;2023-10-31T08:42:53;6.20;;;3.67;;
39300;SDS011;25019;42.626;23.380;2023-10-31T08:45:20;10.90;;;6.33;;
39300;SDS011;25019;42.626;23.380;2023-10-31T08:47:45;11.40;;;5.07;;
39300;SDS011;25019;42.626;23.380;2023-10-31T08:50:11;7.60;;;3.37;;
39300;SDS011;25019;42.626;23.380;2023-10-31T08:52:38;8.30;;;3.50;;
39300;SDS011;25019;42.626;23.380;2023-10-31T08:55:03;8.00;;;3.87;;
39300;SDS011;25019;42.626;23.380;2023-10-31T08:57:29;5.13;;;4.07;;
39300;SDS011;25019;42.626;23.380;2023-10-31T08:59:55;5.57;;;3.77;;
39300;SDS011;25019;42.626;23.380;2023-10-31T09:02:20;6.10;;;3.40;;
39300;SDS011;25019;42.626;23.380;2023-10-31T09:04:46;8.50;;;3.63;;
39300;SDS011;25019;42.626;23.380;2023-10-31T09:07:12;9.03;;;4.00;;
39300;SDS011;25019;42.626;23.380;2023-10-31T09:09:37;8.57;;;3.10;;
39300;SDS011;25019;42.626;23.380;2023-10-31T09:12:03;8.60;;;3.93;;
39300;SDS011;25019;42.626;23.380;2023-10-31T09:14:29;5.03;;;3.67;;
39300;SDS011;25019;42.626;23.380;2023-10-31T09:16:54;8.10;;;4.33;;
39300;SDS011;25019;42.626;23.380;2023-10-31T09:19:20;8.63;;;3.00;;
39300;SDS011;25019;42.626;23.380;2023-10-31T09:21:45;4.67;;;2.53;;
39300;SDS011;25019;42.626;23.380;2023-10-31T09:24:11;4.30;;;2.77;;
39300;SDS011;25019;42.626;23.380;2023-10-31T09:26:37;6.17;;;2.80;;
39300;SDS011;25019;42.626;23.380;2023-10-31T09:29:02;5.97;;;3.23;;
39300;SDS011;25019;42.626;23.380;2023-10-31T09:31:28;3.67;;;2.47;;
39300;SDS011;25019;42.626;23.380;2023-10-31T09:33:54;4.90;;;2.30;;
39300;SDS011;25019;42.626;23.380;2023-10-31T09:36:19;7.40;;;2.60;;
39300;SDS011;25019;42.626;23.380;2023-10-31T09:38:45;5.20;;;2.73;;
39300;SDS011;25019;42.626;23.380;2023-10-31T09:41:12;5.60;;;2.50;;
39300;SDS011;25019;42.626;23.380;2023-10-31T09:43:39;6.23;;;2.53;;
39300;SDS011;25019;42.626;23.380;2023-10-31T09:46:05;5.47;;;2.20;;
39300;SDS011;25019;42.626;23.380;2023-10-31T09:48:31;3.87;;;2.13;;
39300;SDS011;25019;42.626;23.380;2023-10-31T09:50:57;3.53;;;2.10;;
39300;SDS011;25019;42.626;23.380;2023-10-31T09:53:23;3.93;;;2.73;;
39300;SDS011;25019;42.626;23.380;2023-10-31T09:55:49;4.10;;;3.20;;
39300;SDS011;25019;42.626;23.380;2023-10-31T09:58:15;8.17;;;3.13;;
39300;SDS011;25019;42.626;23.380;2023-10-31T10:00:41;5.27;;;2.67;;
39300;SDS011;25019;42.626;23.380;2023-10-31T10:03:07;5.77;;;2.07;;
39300;SDS011;25019;42.626;23.380;2023-10-31T10:05:36;4.90;;;2.33;;
39300;SDS011;25019;42.626;23.380;2023-10-31T10:08:03;5.07;;;2.43;;
39300;SDS011;25019;42.626;23.380;2023-10-31T10:10:29;4.07;;;2.40;;
39300;SDS011;25019;42.626;23.380;2023-10-31T10:12:56;5.00;;;3.50;;
39300;SDS011;25019;42.626;23.380;2023-10-31T10:15:23;4.57;;;2.87;;
39300;SDS011;25019;42.626;23.380;2023-10-31T10:17:50;7.07;;;2.37;;
39300;SDS011;25019;42.626;23.380;2023-10-31T10:20:16;4.83;;;2.20;;
39300;SDS011;25019;42.626;23.380;2023-10-31T10:22:43;3.93;;;2.40;;
39300;SDS011;25019;42.626;23.380;2023-10-31T10:25:09;5.20;;;3.03;;
39300;SDS011;25019;42.626;23.380;2023-10-31T10:27:42;4.67;;;2.50;;
39300;SDS011;25019;42.626;23.380;2023-10-31T10:30:09;5.27;;;2.50;;
39300;SDS011;25019;42.626;23.380;2023-10-31T10:32:35;3.40;;;2.43;;
39300;SDS011;25019;42.626;23.380;2023-10-31T10:35:00;5.97;;;2.93;;
39300;SDS011;25019;42.626;23.380;2023-10-31T10:37:26;4.67;;;2.20;;
39300;SDS011;25019;42.626;23.380;2023-10-31T10:39:53;3.70;;;2.10;;
39300;SDS011;25019;42.626;23.380;2023-10-31T10:45:09;3.57;;;2.43;;
39300;SDS011;25019;42.626;23.380;2023-10-31T10:47:36;4.03;;;2.13;;
39300;SDS011;25019;42.626;23.380;2023-10-31T10:50:03;5.80;;;3.97;;
39300;SDS011;25019;42.626;23.380;2023-10-31T10:53:20;4.70;;;2.17;;
39300;SDS011;25019;42.626;23.380;2023-10-31T10:55:26;4.53;;;1.97;;
39300;SDS011;25019;42.626;23.380;2023-10-31T10:58:05;5.10;;;2.40;;
39300;SDS011;25019;42.626;23.380;2023-10-31T11:00:38;4.70;;;1.93;;
39300;SDS011;25019;42.626;23.380;2023-10-31T11:03:05;4.67;;;2.47;;
39300;SDS011;25019;42.626;23.380;2023-10-31T11:05:32;7.13;;;2.40;;
39300;SDS011;25019;42.626;23.380;2023-10-31T11:07:58;5.30;;;2.50;;
39300;SDS011;25019;42.626;23.380;2023-10-31T11:10:25;4.20;;;2.27;;
39300;SDS011;25019;42.626;23.380;2023-10-31T11:12:53;11.23;;;5.73;;
39300;SDS011;25019;42.626;23.380;2023-10-31T11:15:18;8.90;;;3.03;;
39300;SDS011;25019;42.626;23.380;2023-10-31T11:17:45;10.40;;;5.60;;
39300;SDS011;25019;42.626;23.380;2023-10-31T11:20:14;6.07;;;3.13;;
39300;SDS011;25019;42.626;23.380;2023-10-31T11:22:42;7.23;;;3.57;;
39300;SDS011;25019;42.626;23.380;2023-10-31T11:25:10;10.93;;;4.63;;
39300;SDS011;25019;42.626;23.380;2023-10-31T11:27:37;12.73;;;5.63;;
39300;SDS011;25019;42.626;23.380;2023-10-31T11:30:06;14.97;;;6.80;;
39300;SDS011;25019;42.626;23.380;2023-10-31T11:32:33;12.53;;;6.80;;
39300;SDS011;25019;42.626;23.380;2023-10-31T11:34:59;12.70;;;5.97;;
39300;SDS011;25019;42.626;23.380;2023-10-31T11:37:26;18.97;;;10.30;;
39300;SDS011;25019;42.626;23.380;2023-10-31T11:42:51;6.57;;;3.67;;
39300;SDS011;25019;42.626;23.380;2023-10-31T11:45:40;18.83;;;9.47;;
39300;SDS011;25019;42.626;23.380;2023-10-31T11:48:07;7.83;;;5.63;;
39300;SDS011;25019;42.626;23.380;2023-10-31T11:50:35;9.17;;;3.23;;
39300;SDS011;25019;42.626;23.380;2023-10-31T11:53:02;8.37;;;4.50;;
39300;SDS011;25019;42.626;23.380;2023-10-31T11:55:39;11.33;;;4.37;;
39300;SDS011;25019;42.626;23.380;2023-10-31T11:58:22;6.97;;;3.57;;
39300;SDS011;25019;42.626;23.380;2023-10-31T12:01:01;8.03;;;4.37;;
39300;SDS011;25019;42.626;23.380;2023-10-31T12:03:35;7.90;;;3.50;;
39300;SDS011;25019;42.626;23.380;2023-10-31T12:06:08;8.50;;;3.17;;
39300;SDS011;25019;42.626;23.380;2023-10-31T12:08:38;8.73;;;3.50;;
39300;SDS011;25019;42.626;23.380;2023-10-31T12:16:19;7.53;;;4.00;;
39300;SDS011;25019;42.626;23.380;2023-10-31T12:18:57;10.13;;;3.67;;
39300;SDS011;25019;42.626;23.380;2023-10-31T12:21:37;11.77;;;3.97;;
39300;SDS011;25019;42.626;23.380;2023-10-31T12:24:07;11.67;;;4.80;;
39300;SDS011;25019;42.626;23.380;2023-10-31T12:26:37;8.90;;;4.23;;
39300;SDS011;25019;42.626;23.380;2023-10-31T12:29:07;6.53;;;3.37;;
39300;SDS011;25019;42.626;23.380;2023-10-31T12:31:49;6.90;;;3.03;;
39300;SDS011;25019;42.626;23.380;2023-10-31T12:34:18;15.63;;;10.43;;
39300;SDS011;25019;42.626;23.380;2023-10-31T12:36:45;20.63;;;15.33;;
39300;SDS011;25019;42.626;23.380;2023-10-31T12:39:12;10.13;;;3.77;;
39300;SDS011;25019;42.626;23.380;2023-10-31T12:41:39;4.67;;;3.07;;
39300;SDS011;25019;42.626;23.380;2023-10-31T12:44:06;9.33;;;4.73;;
39300;SDS011;25019;42.626;23.380;2023-10-31T12:46:38;7.27;;;2.97;;
39300;SDS011;25019;42.626;23.380;2023-10-31T12:49:10;5.60;;;3.07;;
39300;SDS011;25019;42.626;23.380;2023-10-31T12:51:38;17.27;;;6.67;;
39300;SDS011;25019;42.626;23.380;2023-10-31T12:54:03;14.03;;;8.07;;
39300;SDS011;25019;42.626;23.380;2023-10-31T12:56:39;16.23;;;5.57;;
39300;SDS011;25019;42.626;23.380;2023-10-31T12:59:06;9.70;;;4.90;;
39300;SDS011;25019;42.626;23.380;2023-10-31T13:01:41;9.77;;;3.00;;
39300;SDS011;25019;42.626;23.380;2023-10-31T13:04:08;5.93;;;2.87;;
39300;SDS011;25019;42.626;23.380;2023-10-31T13:06:34;9.63;;;3.47;;
39300;SDS011;25019;42.626;23.380;2023-10-31T13:09:00;12.07;;;3.83;;
39300;SDS011;25019;42.626;23.380;2023-10-31T13:11:29;7.10;;;3.00;;
39300;SDS011;25019;42.626;23.380;2023-10-31T13:13:56;7.73;;;4.00;;
39300;SDS011;25019;42.626;23.380;2023-10-31T13:16:22;5.10;;;2.50;;
39300;SDS011;25019;42.626;23.380;2023-10-31T13:18:47;11.27;;;3.57;;
39300;SDS011;25019;42.626;23.380;2023-10-31T13:21:14;8.63;;;3.73;;
39300;SDS011;25019;42.626;23.380;2023-10-31T13:23:41;8.20;;;3.40;;
39300;SDS011;25019;42.626;23.380;2023-10-31T13:26:11;10.27;;;3.50;;
39300;SDS011;25019;42.626;23.380;2023-10-31T13:28:37;6.73;;;2.97;;
39300;SDS011;25019;42.626;23.380;2023-10-31T13:31:05;4.83;;;2.70;;
39300;SDS011;25019;42.626;23.380;2023-10-31T13:33:32;6.70;;;2.67;;
39300;SDS011;25019;42.626;23.380;2023-10-31T13:35:58;8.73;;;4.27;;
39300;SDS011;25019;42.626;23.380;2023-10-31T13:38:23;7.50;;;3.67;;
39300;SDS011;25019;42.626;23.380;2023-10-31T13:40:49;7.57;;;3.33;;
39300;SDS011;25019;42.626;23.380;2023-10-31T13:43:14;9.37;;;3.57;;
39300;SDS011;25019;42.626;23.380;2023-10-31T13:45:40;9.80;;;3.30;;
39300;SDS011;25019;42.626;23.380;2023-10-31T13:48:06;4.80;;;2.60;;
39300;SDS011;25019;42.626;23.380;2023-10-31T13:50:31;7.87;;;2.90;;
39300;SDS011;25019;42.626;23.380;2023-10-31T13:52:57;5.17;;;2.57;;
39300;SDS011;25019;42.626;23.380;2023-10-31T13:55:22;10.50;;;2.90;;
39300;SDS011;25019;42.626;23.380;2023-10-31T13:57:50;7.20;;;3.00;;
39300;SDS011;25019;42.626;23.380;2023-10-31T14:00:16;9.87;;;2.83;;
39300;SDS011;25019;42.626;23.380;2023-10-31T14:02:42;8.60;;;2.73;;
39300;SDS011;25019;42.626;23.380;2023-10-31T14:05:07;12.83;;;3.03;;
39300;SDS011;25019;42.626;23.380;2023-10-31T14:07:33;8.17;;;2.60;;
39300;SDS011;25019;42.626;23.380;2023-10-31T14:10:00;8.77;;;3.43;;
39300;SDS011;25019;42.626;23.380;2023-10-31T14:12:26;6.23;;;3.33;;
39300;SDS011;25019;42.626;23.380;2023-10-31T14:14:53;6.83;;;3.57;;
39300;SDS011;25019;42.626;23.380;2023-10-31T14:17:19;11.90;;;4.53;;
39300;SDS011;25019;42.626;23.380;2023-10-31T14:19:44;14.73;;;6.90;;
39300;SDS011;25019;42.626;23.380;2023-10-31T14:22:11;10.07;;;5.50;;
39300;SDS011;25019;42.626;23.380;2023-10-31T14:24:37;16.13;;;3.73;;
39300;SDS011;25019;42.626;23.380;2023-10-31T14:27:02;9.70;;;3.30;;
39300;SDS011;25019;42.626;23.380;2023-10-31T14:29:28;9.20;;;3.80;;
39300;SDS011;25019;42.626;23.380;2023-10-31T14:31:53;8.83;;;4.07;;
39300;SDS011;25019;42.626;23.380;2023-10-31T14:34:22;10.07;;;4.50;;
39300;SDS011;25019;42.626;23.380;2023-10-31T14:36:48;7.20;;;3.50;;
39300;SDS011;25019;42.626;23.380;2023-10-31T14:39:14;11.03;;;5.37;;
39300;SDS011;25019;42.626;23.380;2023-10-31T14:41:39;9.20;;;5.63;;
39300;SDS011;25019;42.626;23.380;2023-10-31T14:44:05;11.93;;;4.03;;
39300;SDS011;25019;42.626;23.380;2023-10-31T14:46:31;7.90;;;3.40;;
39300;SDS011;25019;42.626;23.380;2023-10-31T14:48:57;9.87;;;3.60;;
39300;SDS011;25019;42.626;23.380;2023-10-31T14:51:23;8.87;;;4.20;;
39300;SDS011;25019;42.626;23.380;2023-10-31T14:53:49;17.33;;;8.73;;
39300;SDS011;25019;42.626;23.380;2023-10-31T14:56:15;8.37;;;3.93;;
39300;SDS011;25019;42.626;23.380;2023-10-31T14:58:41;14.77;;;4.27;;
39300;SDS011;25019;42.626;23.380;2023-10-31T15:01:07;8.40;;;4.17;;
39300;SDS011;25019;42.626;23.380;2023-10-31T15:03:33;10.93;;;4.43;;
39300;SDS011;25019;42.626;23.380;2023-10-31T15:05:58;12.37;;;5.00;;
39300;SDS011;25019;42.626;23.380;2023-10-31T15:08:24;12.10;;;5.13;;
39300;SDS011;25019;42.626;23.380;2023-10-31T15:10:55;13.83;;;4.50;;
39300;SDS011;25019;42.626;23.380;2023-10-31T15:13:23;11.40;;;5.10;;
39300;SDS011;25019;42.626;23.380;2023-10-31T15:15:49;10.70;;;4.73;;
39300;SDS011;25019;42.626;23.380;2023-10-31T15:18:15;13.70;;;5.37;;
39300;SDS011;25019;42.626;23.380;2023-10-31T15:20:40;13.93;;;5.53;;
39300;SDS011;25019;42.626;23.380;2023-10-31T15:23:06;21.20;;;9.90;;
39300;SDS011;25019;42.626;23.380;2023-10-31T15:25:32;17.97;;;7.47;;
39300;SDS011;25019;42.626;23.380;2023-10-31T15:27:57;16.47;;;7.47;;
39300;SDS011;25019;42.626;23.380;2023-10-31T15:30:23;18.13;;;8.47;;
39300;SDS011;25019;42.626;23.380;2023-10-31T15:32:48;19.53;;;9.03;;
39300;SDS011;25019;42.626;23.380;2023-10-31T15:35:14;19.73;;;8.13;;
39300;SDS011;25019;42.626;23.380;2023-10-31T15:37:39;19.83;;;7.47;;
39300;SDS011;25019;42.626;23.380;2023-10-31T15:40:06;17.73;;;6.73;;
39300;SDS011;25019;42.626;23.380;2023-10-31T15:42:32;15.57;;;7.00;;
39300;SDS011;25019;42.626;23.380;2023-10-31T15:44:58;14.77;;;6.83;;